Time;durP1;ratioP1;P1;durP2;ratioP2;P2;SDS_P1;SDS_P2;PMS_P1;PMS_P2;Temp;Humidity;BMP_temperature;BMP_pressure;BME280_temperature;BME280_humidity;BME280_pressure;Samples;Min_cycle;Max_cycle;Signal;HPM_P1;HPM_P2
2023/02/14 00:02:05;;;;;;;16.60;10.70;;;6.60;99.90;;;;;;6366791;22;20221;-87
2023/02/14 00:04:51;;;;;;;18.80;10.48;;;6.60;97.50;;;;;;6373763;22;20207;-87
2023/02/14 00:07:19;;;;;;;14.18;10.38;;;6.60;23.80;;;;;;6368884;22;20158;-89
2023/02/14 00:09:52;;;;;;;11.50;9.43;;;6.60;12.50;;;;;;6368844;22;20202;-86
2023/02/14 00:12:22;;;;;;;16.10;10.27;;;6.50;1.00;;;;;;6369987;22;20571;-87
2023/02/14 00:15:22;;;;;;;16.63;10.05;;;6.50;1.00;;;;;;6370450;22;20207;-87
2023/02/14 00:18:00;;;;;;;14.13;9.27;;;6.40;1.00;;;;;;6381729;22;20146;-87
2023/02/14 00:20:40;;;;;;;17.55;11.45;;;6.40;18.00;;;;;;6366924;22;20181;-89
2023/02/14 00:23:32;;;;;;;;;;;;;;;;;;;;;
2023/02/14 00:25:57;;;;;;;17.10;11.40;;;6.40;1.00;;;;;;6369340;22;20210;-89
2023/02/14 00:28:51;;;;;;;17.63;11.87;;;6.40;1.00;;;;;;6368113;22;20209;-87
2023/02/14 00:31:20;;;;;;;12.88;9.77;;;6.40;1.00;;;;;;6370022;22;20157;-87
2023/02/14 00:34:14;;;;;;;13.15;9.52;;;6.30;1.00;;;;;;6368892;22;20166;-87
2023/02/14 00:36:45;;;;;;;12.57;8.18;;;6.40;99.90;;;;;;6368277;22;20145;-87
2023/02/14 00:39:17;;;;;;;11.93;9.20;;;6.30;99.90;;;;;;6367612;22;20158;-87
2023/02/14 00:41:43;;;;;;;13.25;9.65;;;6.30;99.90;;;;;;6367211;22;20146;-87
2023/02/14 00:44:23;;;;;;;;;;;;;;;;;;;;;
2023/02/14 00:47:01;;;;;;;15.05;8.82;;;6.30;99.90;;;;;;6367350;22;20205;-87
2023/02/14 00:49:34;;;;;;;15.05;9.38;;;6.30;99.90;;;;;;6367032;22;20185;-86
2023/02/14 00:52:12;;;;;;;13.10;9.40;;;6.30;99.90;;;;;;6371383;22;20131;-87
2023/02/14 00:55:01;;;;;;;12.32;9.23;;;6.20;72.60;;;;;;6371396;22;20447;-87
2023/02/14 00:57:28;;;;;;;15.60;7.90;;;6.20;20.30;;;;;;6371163;22;20149;-86
2023/02/14 00:59:57;;;;;;;14.95;9.23;;;6.20;21.60;;;;;;6385556;22;20188;-87
2023/02/14 01:02:22;;;;;;;14.02;9.50;;;6.10;28.90;;;;;;6404017;22;20297;-87
2023/02/14 01:04:50;;;;;;;13.53;9.00;;;6.10;1.00;;;;;;6375689;22;20177;-87
2023/02/14 01:07:44;;;;;;;14.20;9.52;;;6.10;1.00;;;;;;6404099;22;20777;-86
2023/02/14 01:10:22;;;;;;;;;;;;;;;;;;;;;
2023/02/14 01:13:09;;;;;;;16.55;9.73;;;5.90;1.00;;;;;;6403095;22;20204;-87
2023/02/14 01:16:04;;;;;;;10.55;8.05;;;5.90;1.00;;;;;;6403747;22;20150;-87
2023/02/14 01:18:30;;;;;;;13.30;8.55;;;5.80;24.40;;;;;;6395825;22;20206;-86
2023/02/14 01:20:55;;;;;;;12.60;8.77;;;5.70;42.40;;;;;;6404180;22;20154;-87
2023/02/14 01:23:21;;;;;;;12.07;9.37;;;5.70;91.10;;;;;;6404108;22;20220;-87
2023/02/14 01:26:07;;;;;;;16.00;9.63;;;5.70;99.90;;;;;;6403035;22;20230;-87
2023/02/14 01:28:41;;;;;;;12.50;8.88;;;5.60;99.90;;;;;;6402658;22;20615;-87
2023/02/14 01:31:38;;;;;;;;;;;;;;;;;;;;;
2023/02/14 01:34:14;;;;;;;13.23;8.88;;;5.60;99.90;;;;;;6396779;22;20220;-87
2023/02/14 01:37:07;;;;;;;14.65;9.18;;;5.50;99.90;;;;;;6403771;22;20133;-87
2023/02/14 01:39:38;;;;;;;14.98;8.60;;;5.50;99.90;;;;;;6404045;22;20561;-87
2023/02/14 01:42:13;;;;;;;13.40;8.55;;;5.50;99.90;;;;;;6403720;22;20604;-87
2023/02/14 01:44:41;;;;;;;12.45;8.32;;;5.50;99.90;;;;;;6402342;22;20133;-87
2023/02/14 01:47:29;;;;;;;13.75;9.57;;;5.40;99.90;;;;;;6403737;22;20224;-87
2023/02/14 01:50:18;;;;;;;;;;;;;;;;;;;;;
2023/02/14 01:53:16;;;;;;;14.00;9.38;;;5.30;99.90;;;;;;6403565;22;20208;-87
2023/02/14 01:55:46;;;;;;;12.77;9.10;;;5.30;99.90;;;;;;6348986;22;20130;-86
2023/02/14 01:58:23;;;;;;;12.32;8.52;;;5.30;99.90;;;;;;6371776;22;20536;-87
2023/02/14 02:00:58;;;;;;;15.85;9.00;;;5.30;99.90;;;;;;6370825;22;20674;-86
2023/02/14 02:03:54;;;;;;;12.88;8.85;;;5.30;99.90;;;;;;6369041;22;20134;-86
2023/02/14 02:06:31;;;;;;;14.35;9.52;;;5.30;99.90;;;;;;6344907;22;20226;-86
2023/02/14 02:09:16;;;;;;;11.90;8.40;;;5.30;1.00;;;;;;6370491;22;20205;-86
2023/02/14 02:11:42;;;;;;;12.25;8.43;;;5.30;99.90;;;;;;6370527;22;20195;-86
2023/02/14 02:14:14;;;;;;;13.23;8.73;;;5.20;99.90;;;;;;6343314;22;20165;-87
2023/02/14 02:17:15;;;;;;;18.13;8.90;;;5.20;99.90;;;;;;6370257;22;20497;-86
2023/02/14 02:20:18;;;;;;;14.07;8.77;;;5.20;1.00;;;;;;6341759;22;20181;-89
2023/02/14 02:23:20;;;;;;;12.65;9.18;;;5.20;1.00;;;;;;6370314;22;20536;-87
2023/02/14 02:26:33;;;;;;;15.50;8.23;;;5.10;1.00;;;;;;6369111;22;20206;-86
2023/02/14 02:29:17;;;;;;;14.98;9.70;;;5.10;1.00;;;;;;6274536;22;20178;-87
2023/02/14 02:31:57;;;;;;;13.88;8.63;;;5.10;1.00;;;;;;6370166;22;20672;-87
2023/02/14 02:35:04;;;;;;;12.82;9.50;;;5.10;1.00;;;;;;6342584;22;20154;-86
2023/02/14 02:37:53;;;;;;;13.65;10.05;;;5.10;1.00;;;;;;6370136;22;20153;-86
2023/02/14 02:40:43;;;;;;;16.63;10.05;;;5.20;35.30;;;;;;6369233;22;20194;-86
2023/02/14 02:43:37;;;;;;;18.60;12.50;;;5.20;1.00;;;;;;6370102;22;20192;-86
2023/02/14 02:46:46;;;;;;;17.60;11.25;;;5.20;99.90;;;;;;6370720;22;20196;-86
2023/02/14 02:55:19;;;;;;;21.20;12.25;;;5.10;1.00;;;;;;6369694;22;20145;-87
2023/02/14 02:57:47;;;;;;;16.77;11.00;;;5.20;1.00;;;;;;6370680;22;20130;-86
2023/02/14 03:00:14;;;;;;;19.30;12.13;;;5.10;99.90;;;;;;6370863;22;20192;-86
2023/02/14 03:05:33;;;;;;;17.85;12.77;;;5.10;99.90;;;;;;6370781;22;20553;-87
2023/02/14 03:07:59;;;;;;;20.35;13.85;;;5.10;99.90;;;;;;6370194;22;20151;-85
2023/02/14 03:10:28;;;;;;;22.37;13.57;;;5.10;1.00;;;;;;6370172;22;20174;-86
2023/02/14 03:12:59;;;;;;;19.00;11.50;;;5.10;1.00;;;;;;6369849;22;20174;-86
2023/02/14 03:15:43;;;;;;;20.55;12.38;;;5.00;43.40;;;;;;6369153;22;20152;-86
2023/02/14 03:18:14;;;;;;;24.70;15.10;;;5.10;8.10;;;;;;6369357;22;20169;-86
2023/02/14 03:20:54;;;;;;;23.30;13.88;;;5.00;99.90;;;;;;6342852;22;20178;-86
2023/02/14 03:23:28;;;;;;;21.20;13.90;;;5.00;99.90;;;;;;6342811;22;20146;-86
2023/02/14 03:26:06;;;;;;;20.40;14.30;;;5.00;99.90;;;;;;6342244;22;20179;-86
2023/02/14 03:28:40;;;;;;;17.58;13.32;;;5.00;99.90;;;;;;6342519;22;20185;-86
2023/02/14 03:31:21;;;;;;;20.15;13.70;;;5.00;49.50;;;;;;6370121;22;20131;-88
2023/02/14 03:33:57;;;;;;;16.00;10.85;;;5.00;1.00;;;;;;6354775;22;20457;-86
2023/02/14 03:36:46;;;;;;;20.27;12.10;;;5.00;99.90;;;;;;6381812;22;20183;-85
2023/02/14 03:39:27;;;;;;;16.13;11.52;;;4.90;9.80;;;;;;6342899;22;20871;-86
2023/02/14 03:42:03;;;;;;;17.45;10.88;;;4.90;1.00;;;;;;6370113;22;20235;-86
2023/02/14 03:44:31;;;;;;;22.13;12.30;;;4.90;1.00;;;;;;6342601;22;20199;-86
2023/02/14 03:47:13;;;;;;;22.38;14.18;;;4.80;1.00;;;;;;6369221;22;20597;-87
2023/02/14 03:49:46;;;;;;;22.00;12.98;;;4.80;1.00;;;;;;6342572;22;20239;-88
2023/02/14 03:52:15;;;;;;;23.25;15.18;;;4.80;99.90;;;;;;6369823;22;20600;-86
2023/02/14 03:54:45;;;;;;;25.70;14.95;;;4.80;1.00;;;;;;6342582;22;20156;-87
2023/02/14 03:57:16;;;;;;;25.88;15.43;;;4.70;99.90;;;;;;6341153;22;20159;-86
2023/02/14 03:59:49;;;;;;;27.08;14.45;;;4.80;78.80;;;;;;6370318;22;20677;-86
2023/02/14 04:02:36;;;;;;;20.48;14.65;;;4.70;1.00;;;;;;6370473;22;20148;-85
2023/02/14 04:05:08;;;;;;;26.80;14.98;;;4.70;99.90;;;;;;6342122;22;20150;-88
2023/02/14 04:11:22;;;;;;;22.77;14.95;;;4.60;99.90;;;;;;6361302;22;20182;-87
2023/02/14 04:14:28;;;;;;;25.98;15.57;;;4.60;99.90;;;;;;6351975;22;20551;-87
2023/02/14 04:20:16;;;;;;;25.15;16.15;;;4.60;1.00;;;;;;6369657;22;20327;-86
2023/02/14 04:22:41;;;;;;;20.75;15.02;;;4.50;1.00;;;;;;6371505;22;20137;-87
2023/02/14 04:25:14;;;;;;;25.90;16.63;;;4.50;1.00;;;;;;6384895;22;20582;-89
2023/02/14 04:27:43;;;;;;;26.08;15.85;;;4.50;99.90;;;;;;6386862;22;20122;-87
2023/02/14 04:30:19;;;;;;;;;;;;;;;;;;;;;
2023/02/14 04:33:13;;;;;;;;;;;;;;;;;;;;;
2023/02/14 04:36:06;;;;;;;28.77;16.83;;;4.50;21.70;;;;;;6363463;22;20245;-89
2023/02/14 04:39:08;;;;;;;28.17;15.65;;;4.40;87.50;;;;;;6372299;22;20182;-86
2023/02/14 04:41:43;;;;;;;27.77;17.25;;;4.50;99.90;;;;;;6369826;22;20641;-87
2023/02/14 04:44:26;;;;;;;28.92;17.98;;;4.40;99.90;;;;;;6376918;22;20134;-87
2023/02/14 04:47:38;;;;;;;31.83;19.70;;;4.40;99.90;;;;;;6346943;22;20181;-86
2023/02/14 04:50:04;;;;;;;64.38;27.08;;;4.40;99.90;;;;;;6352839;22;20194;-86
2023/02/14 04:52:55;;;;;;;30.90;18.20;;;4.40;99.90;;;;;;6370061;22;20150;-88
2023/02/14 04:56:10;;;;;;;37.88;19.35;;;4.40;99.90;;;;;;6350464;22;20158;-86
2023/02/14 04:58:55;;;;;;;39.05;22.60;;;4.40;96.30;;;;;;6328158;22;20158;-87
2023/02/14 05:01:48;;;;;;;54.47;24.77;;;4.40;1.00;;;;;;6369505;22;20222;-87
2023/02/14 05:04:36;;;;;;;37.65;21.20;;;4.40;1.00;;;;;;6372430;22;20133;-86
2023/02/14 05:07:05;;;;;;;36.53;17.10;;;4.40;1.00;;;;;;6352994;22;20143;-87
2023/02/14 05:09:38;;;;;;;26.67;16.58;;;4.30;1.00;;;;;;6381383;22;20185;-86
2023/02/14 05:12:19;;;;;;;;;;;;;;;;;;;;;
2023/02/14 05:14:54;;;;;;;;;;;;;;;;;;;;;
2023/02/14 05:17:20;;;;;;;27.92;16.60;;;4.30;1.00;;;;;;6374743;22;20204;-87
2023/02/14 05:19:55;;;;;;;28.20;17.47;;;4.30;1.00;;;;;;6370439;22;20166;-86
2023/02/14 05:22:20;;;;;;;29.50;16.35;;;4.20;1.00;;;;;;6342461;22;20153;-86
2023/02/14 05:25:05;;;;;;;26.40;16.90;;;4.20;1.00;;;;;;6341385;22;20161;-86
2023/02/14 05:27:33;;;;;;;22.67;16.90;;;4.20;1.00;;;;;;6342172;22;20233;-86
2023/02/14 05:30:31;;;;;;;28.00;16.70;;;4.20;1.00;;;;;;6369522;22;20257;-87
2023/02/14 05:33:09;;;;;;;;;;;;;;;;;;;;;
2023/02/14 05:36:04;;;;;;;28.90;17.13;;;4.20;1.00;;;;;;6370215;22;20226;-86
2023/02/14 05:38:53;;;;;;;26.05;15.65;;;4.10;88.20;;;;;;6371412;22;20156;-86
2023/02/14 05:41:26;;;;;;;26.30;16.02;;;4.10;99.90;;;;;;6344333;22;20177;-86
2023/02/14 05:44:05;;;;;;;29.40;17.92;;;4.10;99.90;;;;;;6371800;22;20145;-86
2023/02/14 05:46:41;;;;;;;;;;;;;;;;;;;;;
2023/02/14 05:52:46;;;;;;;;;;;;;;;;;;;;;
2023/02/14 05:55:32;;;;;;;23.95;15.68;;;4.00;37.60;;;;;;6372913;22;20242;-87
2023/02/14 05:57:59;;;;;;;26.45;16.30;;;4.00;99.90;;;;;;6372986;22;20138;-86
2023/02/14 06:00:37;;;;;;;43.78;25.15;;;4.00;95.10;;;;;;6371484;22;20221;-86
2023/02/14 06:03:10;;;;;;;40.88;21.67;;;4.00;19.50;;;;;;6372698;22;20202;-87
2023/02/14 06:06:06;;;;;;;;;;;;;;;;;;;;;
2023/02/14 06:08:49;;;;;;;24.85;13.63;;;4.00;18.70;;;;;;6372999;22;20577;-88
2023/02/14 06:11:20;;;;;;;25.33;16.30;;;3.90;62.10;;;;;;6373203;22;20141;-87
2023/02/14 06:14:03;;;;;;;;;;;;;;;;;;;;;
2023/02/14 06:16:36;;;;;;;31.80;17.13;;;3.80;99.90;;;;;;6371060;22;20221;-88
2023/02/14 06:19:04;;;;;;;25.02;17.17;;;3.80;99.90;;;;;;6371419;22;20166;-87
2023/02/14 06:22:15;;;;;;;30.08;17.10;;;3.80;99.90;;;;;;6371384;22;20154;-87
2023/02/14 06:24:40;;;;;;;31.42;17.15;;;3.70;99.90;;;;;;6364671;22;20158;-87
2023/02/14 06:27:08;;;;;;;30.52;17.77;;;3.70;99.90;;;;;;6371650;22;20146;-87
2023/02/14 06:29:35;;;;;;;38.85;21.20;;;3.60;99.90;;;;;;6343753;22;20193;-87
2023/02/14 06:32:05;;;;;;;35.58;20.55;;;3.60;99.90;;;;;;6342122;22;20191;-87
2023/02/14 06:34:44;;;;;;;35.83;21.08;;;3.60;99.90;;;;;;6372401;22;20146;-86
2023/02/14 06:37:18;;;;;;;33.13;20.40;;;3.60;99.90;;;;;;6371099;22;20158;-87
2023/02/14 06:40:06;;;;;;;28.30;18.63;;;3.60;99.90;;;;;;6344387;22;20397;-86
2023/02/14 06:42:37;;;;;;;25.73;17.35;;;3.60;99.90;;;;;;6372258;22;20138;-87
2023/02/14 06:45:09;;;;;;;29.85;18.65;;;3.60;99.90;;;;;;6344633;22;20155;-86
2023/02/14 06:47:34;;;;;;;32.47;18.70;;;3.60;99.90;;;;;;6372078;22;20135;-87
2023/02/14 06:50:13;;;;;;;;;;;;;;;;;;;;;
2023/02/14 06:52:53;;;;;;;30.58;17.75;;;3.60;99.90;;;;;;6371483;22;20201;-89
2023/02/14 06:58:57;;;;;;;;;;;;;;;;;;;;;
2023/02/14 07:01:34;;;;;;;34.55;19.98;;;3.80;99.90;;;;;;6370237;22;20250;-86
2023/02/14 07:04:52;;;;;;;34.15;18.75;;;3.90;99.90;;;;;;6369610;22;20138;-86
2023/02/14 07:10:41;;;;;;;25.88;15.75;;;4.20;99.90;;;;;;6368259;22;20567;-88
2023/02/14 07:13:32;;;;;;;26.40;16.80;;;4.30;99.90;;;;;;6356139;22;20150;-87
2023/02/14 07:16:13;;;;;;;29.58;17.40;;;4.50;99.90;;;;;;6367715;22;20130;-88
2023/02/14 07:19:07;;;;;;;27.42;15.65;;;4.60;23.30;;;;;;6368398;22;20510;-88
2023/02/14 07:21:32;;;;;;;30.17;16.00;;;4.70;1.00;;;;;;6368805;22;20127;-87
2023/02/14 07:27:14;;;;;;;27.40;17.35;;;4.90;1.00;;;;;;6357311;22;20219;-86
2023/02/14 07:30:06;;;;;;;31.48;17.73;;;5.00;99.90;;;;;;6340360;22;20181;-87
2023/02/14 07:32:55;;;;;;;28.92;17.48;;;5.20;99.90;;;;;;6351077;22;20151;-87
2023/02/14 07:36:03;;;;;;;31.07;16.83;;;6.80;1.00;;;;;;6368607;22;20169;-89
2023/02/14 07:38:54;;;;;;;23.97;15.10;;;10.00;14.70;;;;;;6364192;22;20469;-88
2023/02/14 07:41:30;;;;;;;23.33;16.50;;;12.90;1.00;;;;;;6341923;22;20380;-90
2023/02/14 07:43:58;;;;;;;22.50;17.10;;;15.30;99.90;;;;;;6336720;22;20405;-89
2023/02/14 07:46:55;;;;;;;26.50;18.30;;;16.80;99.90;;;;;;6341483;22;20464;-89
2023/02/14 07:49:21;;;;;;;22.40;17.03;;;18.00;99.90;;;;;;6350962;22;20457;-89
2023/02/14 07:51:49;;;;;;;22.23;17.43;;;19.30;99.90;;;;;;6341395;22;20381;-89
2023/02/14 07:54:43;;;;;;;24.13;19.07;;;20.10;99.90;;;;;;6340758;22;20414;-89
2023/02/14 07:57:13;;;;;;;21.47;16.77;;;20.90;99.90;;;;;;6340798;22;20388;-88
2023/02/14 07:59:59;;;;;;;18.90;16.90;;;21.80;99.90;;;;;;6340779;22;20428;-88
2023/02/14 08:02:24;;;;;;;47.63;30.50;;;22.50;99.90;;;;;;6347668;22;20403;-89
2023/02/14 08:05:18;;;;;;;17.43;15.10;;;23.10;99.90;;;;;;6349856;22;20382;-88
2023/02/14 08:10:49;;;;;;;19.90;17.03;;;24.80;99.90;;;;;;6309028;22;20419;-89
2023/02/14 08:13:23;;;;;;;27.27;23.03;;;25.20;99.90;;;;;;6340972;22;20380;-89
2023/02/14 08:16:10;;;;;;;18.20;16.37;;;25.80;99.90;;;;;;6341412;22;20376;-90
2023/02/14 08:18:44;;;;;;;15.77;13.97;;;26.40;99.90;;;;;;6341693;22;20388;-90
2023/02/14 08:21:21;;;;;;;17.30;15.63;;;27.00;99.90;;;;;;6369016;22;20348;-89
2023/02/14 08:24:27;;;;;;;18.10;16.20;;;27.20;99.90;;;;;;6339254;22;20379;-90
2023/02/14 08:27:00;;;;;;;16.30;14.60;;;27.60;99.90;;;;;;6364499;22;20449;-90
2023/02/14 08:29:28;;;;;;;17.30;15.50;;;28.00;99.90;;;;;;6340333;22;20460;-89
2023/02/14 08:32:41;;;;;;;16.47;14.63;;;27.80;99.90;;;;;;6368568;22;20847;-90
2023/02/14 08:35:07;;;;;;;18.13;16.23;;;27.90;99.90;;;;;;6340364;22;20387;-90
2023/02/14 08:37:53;;;;;;;18.87;16.60;;;27.90;99.90;;;;;;6340694;22;20381;-90
2023/02/14 08:40:31;;;;;;;;;;;;;;;;;;;;;
2023/02/14 08:43:00;;;;;;;19.20;14.97;;;28.30;99.90;;;;;;6366424;22;20820;-90
2023/02/14 08:45:49;;;;;;;18.70;16.73;;;27.90;99.90;;;;;;6340271;22;20463;-89
2023/02/14 08:48:34;;;;;;;17.63;15.80;;;27.60;99.90;;;;;;6355605;22;20392;-89
2023/02/14 08:54:38;;;;;;;16.80;14.60;;;27.40;99.90;;;;;;6335715;22;20379;-89
2023/02/14 08:57:19;;;;;;;19.10;16.07;;;27.50;99.90;;;;;;6364444;22;20866;-91
2023/02/14 09:00:08;;;;;;;18.40;16.47;;;28.00;99.90;;;;;;6338387;22;20815;-88
2023/02/14 09:02:49;;;;;;;18.20;15.50;;;28.20;99.90;;;;;;6363631;22;20388;-89
2023/02/14 09:05:18;;;;;;;16.87;15.07;;;28.40;99.90;;;;;;6337625;22;20376;-90
2023/02/14 09:07:43;;;;;;;17.57;15.77;;;28.50;99.90;;;;;;6337814;22;20368;-89
2023/02/14 09:10:12;;;;;;;18.70;16.70;;;28.60;99.90;;;;;;6335448;22;20439;-90
2023/02/14 09:12:46;;;;;;;21.07;17.97;;;28.10;99.90;;;;;;6364501;22;20492;-89
2023/02/14 09:15:12;;;;;;;18.87;16.43;;;27.60;99.90;;;;;;6367482;22;21015;-89
2023/02/14 09:17:47;;;;;;;19.70;16.53;;;27.00;99.90;;;;;;6368050;22;20372;-89
2023/02/14 09:20:14;;;;;;;18.03;16.13;;;26.50;99.90;;;;;;6339214;22;20407;-88
2023/02/14 09:26:23;;;;;;;18.57;16.67;;;25.80;99.90;;;;;;6344550;22;20379;-89
2023/02/14 09:28:58;;;;;;;18.50;16.17;;;26.10;99.90;;;;;;6340784;22;20518;-89
2023/02/14 09:31:24;;;;;;;17.93;15.97;;;26.30;99.90;;;;;;6367520;22;20376;-87
2023/02/14 09:33:59;;;;;;;18.40;15.47;;;26.60;99.90;;;;;;6366891;22;20703;-86
2023/02/14 09:36:32;;;;;;;16.23;14.53;;;26.80;99.90;;;;;;6369334;22;20363;-88
2023/02/14 09:38:58;;;;;;;17.93;16.13;;;26.80;99.90;;;;;;6368911;22;20770;-88
2023/02/14 09:41:29;;;;;;;18.10;15.70;;;26.90;99.90;;;;;;6368786;22;20380;-88
2023/02/14 09:43:57;;;;;;;17.37;15.03;;;27.00;99.90;;;;;;6368499;22;20486;-88
2023/02/14 09:46:45;;;;;;;17.07;14.60;;;27.20;99.90;;;;;;6340469;22;20733;-88
2023/02/14 09:49:23;;;;;;;17.23;15.37;;;27.20;99.90;;;;;;6368782;22;20799;-88
2023/02/14 09:52:20;;;;;;;17.83;15.93;;;26.90;99.90;;;;;;6368354;22;20377;-89
2023/02/14 09:55:01;;;;;;;16.80;15.10;;;26.90;99.90;;;;;;6366512;22;20417;-88
2023/02/14 09:57:29;;;;;;;15.57;13.40;;;26.90;99.90;;;;;;6339246;22;20379;-90
2023/02/14 10:06:41;;;;;;;16.57;14.87;;;28.00;99.90;;;;;;6356381;22;20888;-89
2023/02/14 10:09:41;;;;;;;15.27;13.70;;;28.20;99.90;;;;;;6368035;22;20563;-88
2023/02/14 10:15:33;;;;;;;15.60;13.70;;;28.60;99.90;;;;;;6369268;22;20372;-91
2023/02/14 10:18:57;;;;;;;15.30;13.70;;;28.50;99.90;;;;;;6368049;22;20444;-88
2023/02/14 10:31:09;;;;;;;16.83;13.07;;;28.40;99.90;;;;;;6345719;22;20939;-88
2023/02/14 10:33:38;;;;;;;15.97;14.37;;;28.30;99.90;;;;;;6343093;22;20387;-88
2023/02/14 10:36:54;;;;;;;14.67;13.10;;;27.90;99.90;;;;;;6342703;22;20416;-89
2023/02/14 10:39:49;;;;;;;25.07;18.73;;;26.80;99.90;;;;;;6266518;22;20469;-88
2023/02/14 10:42:52;;;;;;;123.20;66.30;;;26.00;99.90;;;;;;6367135;22;20374;-89
2023/02/14 10:45:57;;;;;;;45.13;26.47;;;25.70;99.90;;;;;;6369900;22;20367;-87
2023/02/14 10:52:00;;;;;;;16.33;12.93;;;23.90;99.90;;;;;;6369651;22;20794;-88
2023/02/14 10:55:34;;;;;;;;;;;;;;;;;;;;;
2023/02/14 10:58:35;;;;;;;24.67;19.83;;;22.20;99.90;;;;;;6357583;22;20462;-88
2023/02/14 11:01:16;;;;;;;23.47;18.10;;;21.50;99.90;;;;;;6365949;22;20398;-88
2023/02/14 11:04:05;;;;;;;21.80;14.93;;;21.20;99.90;;;;;;6340415;22;20874;-87
2023/02/14 11:13:37;;;;;;;15.57;13.97;;;24.50;99.90;;;;;;6342994;22;20718;-90
2023/02/14 11:16:11;;;;;;;14.97;12.50;;;25.50;99.90;;;;;;6367812;22;20368;-90
2023/02/14 11:18:42;;;;;;;15.20;13.47;;;25.70;99.90;;;;;;6339129;22;20459;-90
2023/02/14 11:22:08;;;;;;;17.57;13.23;;;25.70;99.90;;;;;;6365664;22;20360;-88
2023/02/14 11:24:44;;;;;;;16.03;14.40;;;26.00;99.90;;;;;;6325013;22;20878;-89
2023/02/14 11:27:12;;;;;;;14.53;13.00;;;26.70;99.90;;;;;;6366093;22;20759;-90
2023/02/14 11:29:38;;;;;;;16.07;14.37;;;27.10;99.90;;;;;;6367633;22;20420;-89
2023/02/14 11:32:54;;;;;;;18.50;14.00;;;27.70;99.90;;;;;;6366873;22;20379;-89
2023/02/14 11:35:45;;;;;;;15.97;14.30;;;27.80;99.90;;;;;;6359799;22;20151;-90
2023/02/14 11:38:38;;;;;;;14.83;13.33;;;28.10;99.90;;;;;;6365094;22;20384;-89
2023/02/14 11:41:10;;;;;;;16.03;13.37;;;28.20;99.90;;;;;;6340284;22;20384;-88
2023/02/14 11:44:23;;;;;;;;;;;;;;;;;;;;;
2023/02/14 11:47:21;;;;;;;14.37;12.87;;;28.90;99.90;;;;;;6368168;22;20449;-89
2023/02/14 11:50:24;;;;;;;16.00;13.67;;;28.60;99.90;;;;;;6366595;22;20427;-89
2023/02/14 11:53:16;;;;;;;15.57;13.90;;;28.70;99.90;;;;;;6347111;22;20876;-89
2023/02/14 11:55:57;;;;;;;16.93;14.67;;;28.50;99.90;;;;;;6367460;22;20384;-88
2023/02/14 11:58:37;;;;;;;15.40;13.23;;;28.40;99.90;;;;;;6367058;22;20704;-88
2023/02/14 12:01:03;;;;;;;14.80;13.30;;;28.60;99.90;;;;;;6339415;22;20399;-88
2023/02/14 12:03:39;;;;;;;13.73;12.33;;;28.80;99.90;;;;;;6339565;22;20399;-88
2023/02/14 12:06:05;;;;;;;16.90;12.87;;;29.00;99.90;;;;;;6337450;22;20259;-88
2023/02/14 12:08:38;;;;;;;16.10;13.67;;;28.90;99.90;;;;;;6338373;22;20427;-88
2023/02/14 12:11:33;;;;;;;17.13;14.10;;;28.60;99.90;;;;;;6365784;22;20356;-89
2023/02/14 12:14:01;;;;;;;14.13;12.63;;;28.20;99.90;;;;;;6312068;22;20449;-90
2023/02/14 12:16:46;;;;;;;16.80;13.80;;;28.00;99.90;;;;;;6366101;22;20765;-90
2023/02/14 12:19:22;;;;;;;15.77;14.10;;;28.20;99.90;;;;;;6339206;22;20407;-89
2023/02/14 12:22:08;;;;;;;15.17;13.13;;;28.20;99.90;;;;;;6338128;22;20380;-88
2023/02/14 12:24:52;;;;;;;18.03;15.87;;;28.30;99.90;;;;;;6365285;22;20394;-89
2023/02/14 12:27:28;;;;;;;16.40;14.03;;;28.20;99.90;;;;;;6365962;22;20370;-89
2023/02/14 12:30:23;;;;;;;16.53;12.93;;;27.90;99.90;;;;;;6339198;22;20997;-89
2023/02/14 12:33:32;;;;;;;;;;;;;;;;;;;;;
2023/02/14 12:36:28;;;;;;;15.17;13.43;;;27.60;99.90;;;;;;6366959;22;20439;-89
2023/02/14 12:39:01;;;;;;;15.13;12.53;;;27.50;99.90;;;;;;6366891;22;20855;-87
2023/02/14 12:41:58;;;;;;;15.70;13.97;;;27.60;99.90;;;;;;6337088;22;20395;-85
2023/02/14 12:45:14;;;;;;;16.47;13.80;;;27.60;99.90;;;;;;6338661;22;20826;-88
2023/02/14 12:48:13;;;;;;;18.93;13.13;;;27.60;99.90;;;;;;6312548;22;20425;-89
2023/02/14 12:50:53;;;;;;;15.20;12.07;;;27.30;99.90;;;;;;6370524;22;20452;-87
2023/02/14 12:53:22;;;;;;;17.43;13.23;;;27.20;99.90;;;;;;6343209;22;20372;-88
2023/02/14 12:56:25;;;;;;;16.00;13.00;;;27.10;99.90;;;;;;6341868;22;20433;-87
2023/02/14 12:59:14;;;;;;;14.03;12.53;;;27.10;99.90;;;;;;6369094;22;20528;-88
2023/02/14 13:02:02;;;;;;;;;;;;;;;;;;;;;
2023/02/14 13:05:06;;;;;;;19.93;12.23;;;27.40;99.90;;;;;;6366289;22;20440;-88
2023/02/14 13:08:04;;;;;;;16.77;11.67;;;27.50;99.90;;;;;;6329635;22;20383;-88
2023/02/14 13:11:14;;;;;;;15.67;11.20;;;27.40;99.90;;;;;;6363966;22;20573;-89
2023/02/14 13:13:54;;;;;;;18.47;12.70;;;27.20;99.90;;;;;;6338666;22;20395;-89
2023/02/14 13:16:43;;;;;;;;;;;;;;;;;;;;;
2023/02/14 13:19:44;;;;;;;18.10;14.07;;;26.80;99.90;;;;;;6366821;22;20798;-87
2023/02/14 13:22:14;;;;;;;17.93;12.37;;;26.10;99.90;;;;;;6366837;22;20834;-88
2023/02/14 13:24:43;;;;;;;18.83;12.40;;;25.70;99.90;;;;;;6337358;22;20420;-89
2023/02/14 13:27:31;;;;;;;17.90;12.20;;;25.50;99.90;;;;;;6365905;22;20379;-88
2023/02/14 13:30:04;;;;;;;20.03;12.40;;;25.30;99.90;;;;;;6365792;22;20430;-88
2023/02/14 13:32:38;;;;;;;17.70;12.27;;;24.80;99.90;;;;;;6338868;22;20428;-87
2023/02/14 13:38:23;;;;;;;17.93;12.73;;;24.30;99.90;;;;;;6347643;22;20726;-88
2023/02/14 13:41:14;;;;;;;13.67;12.00;;;24.20;99.90;;;;;;6364612;22;20348;-88
2023/02/14 13:44:07;;;;;;;;;;;;;;;;;;;;;
2023/02/14 13:46:33;;;;;;;20.53;12.13;;;24.40;99.90;;;;;;6368081;22;20943;-88
2023/02/14 13:49:04;;;;;;;17.53;11.93;;;24.30;99.90;;;;;;6367878;22;20452;-86
2023/02/14 13:51:58;;;;;;;19.20;11.77;;;24.20;99.90;;;;;;6338894;22;20237;-87
2023/02/14 13:54:32;;;;;;;16.83;12.00;;;24.30;99.90;;;;;;6336891;22;20392;-88
2023/02/14 13:57:27;;;;;;;19.67;13.03;;;24.30;99.90;;;;;;6363887;22;20817;-89
2023/02/14 14:00:20;;;;;;;20.00;12.60;;;23.80;99.90;;;;;;6340552;22;20410;-88
2023/02/14 14:02:54;;;;;;;16.20;12.00;;;23.60;99.90;;;;;;6367148;22;20389;-87
2023/02/14 14:05:57;;;;;;;18.30;12.20;;;23.10;99.90;;;;;;6368150;22;20356;-88
2023/02/14 14:08:26;;;;;;;18.67;12.20;;;22.80;99.90;;;;;;6365641;22;20407;-87
2023/02/14 14:11:04;;;;;;;15.10;11.93;;;22.80;99.90;;;;;;6365950;22;20390;-87
2023/02/14 14:13:41;;;;;;;13.27;10.43;;;22.90;99.90;;;;;;6366864;22;20689;-87
2023/02/14 14:16:21;;;;;;;17.70;11.83;;;23.00;99.90;;;;;;6364643;22;20716;-87
2023/02/14 14:18:50;;;;;;;16.47;9.97;;;23.00;99.90;;;;;;6368327;22;20403;-88
2023/02/14 14:21:42;;;;;;;15.30;9.97;;;22.80;99.90;;;;;;6367198;22;20371;-87
2023/02/14 14:24:40;;;;;;;15.00;10.50;;;22.60;99.90;;;;;;6369235;22;20386;-87
2023/02/14 14:27:16;;;;;;;12.53;9.83;;;22.30;99.90;;;;;;6369917;22;20353;-86
2023/02/14 14:30:03;;;;;;;15.30;9.60;;;21.90;99.90;;;;;;6367955;22;20813;-87
2023/02/14 14:32:38;;;;;;;15.40;8.53;;;22.00;99.90;;;;;;6339618;22;20369;-87
2023/02/14 14:35:15;;;;;;;10.47;8.20;;;22.00;99.90;;;;;;6367192;22;20753;-88
2023/02/14 14:38:12;;;;;;;17.40;9.07;;;21.90;99.90;;;;;;6338766;22;20384;-89
2023/02/14 14:41:04;;;;;;;14.30;8.73;;;21.90;99.90;;;;;;6364549;22;20410;-88
2023/02/14 14:43:41;;;;;;;9.73;7.70;;;21.80;99.90;;;;;;6343215;22;20467;-88
2023/02/14 14:46:41;;;;;;;10.20;6.30;;;21.80;99.90;;;;;;6339937;22;20470;-89
2023/02/14 14:49:20;;;;;;;17.83;8.83;;;21.90;99.90;;;;;;6338901;22;20434;-89
2023/02/14 14:52:12;;;;;;;15.67;10.13;;;21.50;99.90;;;;;;6365986;22;20412;-88
2023/02/14 14:54:43;;;;;;;16.93;10.33;;;21.40;99.90;;;;;;6356233;22;20382;-89
2023/02/14 14:57:18;;;;;;;24.87;11.90;;;21.20;99.90;;;;;;6338618;22;20943;-89
2023/02/14 15:00:08;;;;;;;14.90;11.63;;;21.10;99.90;;;;;;6340338;22;20792;-88
2023/02/14 15:03:04;;;;;;;16.70;11.23;;;21.10;99.90;;;;;;6347352;22;20394;-89
2023/02/14 15:05:35;;;;;;;19.67;12.80;;;21.00;99.90;;;;;;6338845;22;20811;-88
2023/02/14 15:08:18;;;;;;;17.60;11.50;;;20.80;99.90;;;;;;6338750;22;20410;-89
2023/02/14 15:10:53;;;;;;;19.90;11.60;;;20.70;99.90;;;;;;6338170;22;20421;-86
2023/02/14 15:17:13;;;;;;;16.70;13.10;;;20.60;99.90;;;;;;6314575;22;20377;-88
2023/02/14 15:20:25;;;;;;;17.87;11.80;;;20.40;99.90;;;;;;6333661;22;20481;-89
2023/02/14 15:22:54;;;;;;;27.27;11.70;;;20.20;99.90;;;;;;6348398;22;20386;-89
2023/02/14 15:25:30;;;;;;;22.13;12.70;;;20.20;99.90;;;;;;6367750;22;20389;-87
2023/02/14 15:28:08;;;;;;;21.40;12.50;;;20.00;99.90;;;;;;6365667;22;20712;-88
2023/02/14 15:31:02;;;;;;;21.30;13.53;;;19.90;99.90;;;;;;6339934;22;20435;-88
2023/02/14 15:33:29;;;;;;;17.50;11.77;;;19.90;99.90;;;;;;6337793;22;20429;-89
2023/02/14 15:36:49;;;;;;;19.90;12.07;;;20.00;99.90;;;;;;6367002;22;20369;-87